sensor_id;sensor_type;location;lat;lon;timestamp;P1;P2;P0
76043;PMS7003;64740;34.694;33.088;2023-07-16T00:00:23;8.4;8.1;6
76043;PMS7003;64740;34.694;33.088;2023-07-16T00:05:49;7.7;7.5;5.7
76043;PMS7003;64740;34.694;33.088;2023-07-16T00:10:11;7.9;7.7;6
76043;PMS7003;64740;34.694;33.088;2023-07-16T00:15:23;7.5;7.3;5.8
76043;PMS7003;64740;34.694;33.088;2023-07-16T00:20:47;7.4;7.3;5.6
76043;PMS7003;64740;34.694;33.088;2023-07-16T00:25:31;7.7;7.3;5.4
76043;PMS7003;64740;34.694;33.088;2023-07-16T00:30:09;7.9;7.6;6
76043;PMS7003;64740;34.694;33.088;2023-07-16T00:35:09;7.5;7.4;5.9
76043;PMS7003;64740;34.694;33.088;2023-07-16T00:40:31;8.3;8.1;6.2
76043;PMS7003;64740;34.694;33.088;2023-07-16T00:45:47;7.8;7.4;5.9
76043;PMS7003;64740;34.694;33.088;2023-07-16T00:50:45;7.9;7.8;5.9
76043;PMS7003;64740;34.694;33.088;2023-07-16T00:55:47;8.2;8.1;6.1
76043;PMS7003;64740;34.694;33.088;2023-07-16T01:00:25;7.4;7.2;5.7
76043;PMS7003;64740;34.694;33.088;2023-07-16T01:05:11;7.7;7.4;5.8
76043;PMS7003;64740;34.694;33.088;2023-07-16T01:10:23;8.2;8.1;6.4
76043;PMS7003;64740;34.694;33.088;2023-07-16T01:15:09;7.8;7.7;6.1
76043;PMS7003;64740;34.694;33.088;2023-07-16T01:20:11;7.9;7.6;6.3
76043;PMS7003;64740;34.694;33.088;2023-07-16T01:25:20;7.5;7.5;5.9
76043;PMS7003;64740;34.694;33.088;2023-07-16T01:30:27;7.4;7.3;5.8
76043;PMS7003;64740;34.694;33.088;2023-07-16T01:35:31;8.2;8;6.3
76043;PMS7003;64740;34.694;33.088;2023-07-16T01:40:23;8;8;6
76043;PMS7003;64740;34.694;33.088;2023-07-16T01:45:21;7.5;7.1;5.4
76043;PMS7003;64740;34.694;33.088;2023-07-16T01:50:21;8.1;8.1;6.2
76043;PMS7003;64740;34.694;33.088;2023-07-16T01:55:11;9.3;9;7.3
76043;PMS7003;64740;34.694;33.088;2023-07-16T02:00:25;11.6;11.3;9
76043;PMS7003;64740;34.694;33.088;2023-07-16T02:05:47;16.1;15.9;12.8
76043;PMS7003;64740;34.694;33.088;2023-07-16T02:10:47;17.4;16.9;13.3
76043;PMS7003;64740;34.694;33.088;2023-07-16T02:15:31;17.4;17.2;13.7
76043;PMS7003;64740;34.694;33.088;2023-07-16T02:20:09;15.3;15.1;11.8
76043;PMS7003;64740;34.694;33.088;2023-07-16T02:25:11;13;13;10.1
76043;PMS7003;64740;34.694;33.088;2023-07-16T02:30:45;11.5;11.3;8.7
76043;PMS7003;64740;34.694;33.088;2023-07-16T02:35:45;12.4;12.1;9.1
76043;PMS7003;64740;34.694;33.088;2023-07-16T02:40:33;13.5;13.3;9.8
76043;PMS7003;64740;34.694;33.088;2023-07-16T02:45:19;14;13.9;10.5
76043;PMS7003;64740;34.694;33.088;2023-07-16T02:50:47;16.7;16.4;12.6
76043;PMS7003;64740;34.694;33.088;2023-07-16T02:55:15;16.5;16.3;12.6
76043;PMS7003;64740;34.694;33.088;2023-07-16T03:00:09;13.9;13.7;11.1
76043;PMS7003;64740;34.694;33.088;2023-07-16T03:05:25;16.2;15.8;12.6
76043;PMS7003;64740;34.694;33.088;2023-07-16T03:10:47;13.6;13.4;10.4
76043;PMS7003;64740;34.694;33.088;2023-07-16T03:15:31;9.7;9.4;7.7
76043;PMS7003;64740;34.694;33.088;2023-07-16T03:20:37;9.1;8.9;7.1
76043;PMS7003;64740;34.694;33.088;2023-07-16T03:25:23;7.6;7.5;5.9
76043;PMS7003;64740;34.694;33.088;2023-07-16T03:30:09;7.4;7.3;5.6
76043;PMS7003;64740;34.694;33.088;2023-07-16T03:35:48;7.9;7.8;6
76043;PMS7003;64740;34.694;33.088;2023-07-16T03:40:13;7.7;7.6;6.1
76043;PMS7003;64740;34.694;33.088;2023-07-16T03:45:19;7.1;7;5.7
76043;PMS7003;64740;34.694;33.088;2023-07-16T03:50:33;7.3;6.9;5.5
76043;PMS7003;64740;34.694;33.088;2023-07-16T03:55:47;7.8;7.5;5.9
76043;PMS7003;64740;34.694;33.088;2023-07-16T04:00:09;7.6;7.5;6.1
76043;PMS7003;64740;34.694;33.088;2023-07-16T04:05:19;7.3;7.2;5.5
76043;PMS7003;64740;34.694;33.088;2023-07-16T04:10:19;7.8;7.5;5.7
76043;PMS7003;64740;34.694;33.088;2023-07-16T04:15:41;8.1;7.6;6
76043;PMS7003;64740;34.694;33.088;2023-07-16T04:20:17;7.6;7.4;5.5
76043;PMS7003;64740;34.694;33.088;2023-07-16T04:25:23;7.7;7.3;5.6
76043;PMS7003;64740;34.694;33.088;2023-07-16T04:30:49;7.3;7.1;5.4
76043;PMS7003;64740;34.694;33.088;2023-07-16T04:35:11;6.2;6;4.9
76043;PMS7003;64740;34.694;33.088;2023-07-16T04:40:11;7.5;7.2;5.7
76043;PMS7003;64740;34.694;33.088;2023-07-16T04:45:49;7.6;7.5;5.8
76043;PMS7003;64740;34.694;33.088;2023-07-16T04:50:33;7.1;7;5.4
76043;PMS7003;64740;34.694;33.088;2023-07-16T04:55:11;7.3;7.2;5.9
76043;PMS7003;64740;34.694;33.088;2023-07-16T05:00:23;7.7;7.6;5.9
76043;PMS7003;64740;34.694;33.088;2023-07-16T05:05:33;7.5;7.5;5.7
76043;PMS7003;64740;34.694;33.088;2023-07-16T05:10:09;8.4;8.4;6.4
76043;PMS7003;64740;34.694;33.088;2023-07-16T05:15:23;8.9;8.7;6.8
76043;PMS7003;64740;34.694;33.088;2023-07-16T05:20:49;9;9;6.6
76043;PMS7003;64740;34.694;33.088;2023-07-16T05:25:49;10.4;10;7.6
76043;PMS7003;64740;34.694;33.088;2023-07-16T05:30:27;12.1;11.8;8.8
76043;PMS7003;64740;34.694;33.088;2023-07-16T05:35:23;16.1;15.9;11.4
76043;PMS7003;64740;34.694;33.088;2023-07-16T05:40:09;18.8;18.4;13.6
76043;PMS7003;64740;34.694;33.088;2023-07-16T05:45:09;21.1;20.7;13.9
76043;PMS7003;64740;34.694;33.088;2023-07-16T05:50:25;18.7;18.4;13.1
76043;PMS7003;64740;34.694;33.088;2023-07-16T05:55:41;18.6;18.3;13
76043;PMS7003;64740;34.694;33.088;2023-07-16T06:00:33;15.6;14.9;10.3
76043;PMS7003;64740;34.694;33.088;2023-07-16T06:05:33;13;12.7;8.9
76043;PMS7003;64740;34.694;33.088;2023-07-16T06:10:25;9.3;9.2;6.9
76043;PMS7003;64740;34.694;33.088;2023-07-16T06:15:09;7.7;7.4;5.5
76043;PMS7003;64740;34.694;33.088;2023-07-16T06:20:11;7.2;7;5.4
76043;PMS7003;64740;34.694;33.088;2023-07-16T06:25:53;7.8;7.3;5.6
76043;PMS7003;64740;34.694;33.088;2023-07-16T06:30:49;7.7;7.5;6
76043;PMS7003;64740;34.694;33.088;2023-07-16T06:35:49;8.1;7.7;5.4
76043;PMS7003;64740;34.694;33.088;2023-07-16T06:40:33;7.9;7.8;5.8
76043;PMS7003;64740;34.694;33.088;2023-07-16T06:45:21;8.2;8.1;6.2
76043;PMS7003;64740;34.694;33.088;2023-07-16T06:50:11;9.5;9.3;7
76043;PMS7003;64740;34.694;33.088;2023-07-16T06:55:41;9.1;8.8;6.5
76043;PMS7003;64740;34.694;33.088;2023-07-16T07:00:49;9.1;8.9;6.9
76043;PMS7003;64740;34.694;33.088;2023-07-16T07:05:33;9.1;9.1;7.1
76043;PMS7003;64740;34.694;33.088;2023-07-16T07:10:39;8;7.9;5.8
76043;PMS7003;64740;34.694;33.088;2023-07-16T07:15:49;8.6;8.4;6.7
76043;PMS7003;64740;34.694;33.088;2023-07-16T07:20:10;8.8;8.5;6.8
76043;PMS7003;64740;34.694;33.088;2023-07-16T07:25:25;9.4;9;6.8
76043;PMS7003;64740;34.694;33.088;2023-07-16T07:30:23;9.5;9.4;6.8
76043;PMS7003;64740;34.694;33.088;2023-07-16T07:35:52;8.9;8.7;6.6
76043;PMS7003;64740;34.694;33.088;2023-07-16T07:40:33;6.6;6.5;5.2
76043;PMS7003;64740;34.694;33.088;2023-07-16T07:45:11;8.8;8.5;6.6
76043;PMS7003;64740;34.694;33.088;2023-07-16T07:50:25;8.2;8.2;6.1
76043;PMS7003;64740;34.694;33.088;2023-07-16T07:55:09;9;8.8;6.7
76043;PMS7003;64740;34.694;33.088;2023-07-16T08:00:49;9;8.8;6.7
76043;PMS7003;64740;34.694;33.088;2023-07-16T08:05:25;9.3;9.3;7.4
76043;PMS7003;64740;34.694;33.088;2023-07-16T08:10:17;9.1;9.1;6.7
76043;PMS7003;64740;34.694;33.088;2023-07-16T08:15:35;12.2;12;9
76043;PMS7003;64740;34.694;33.088;2023-07-16T08:20:47;12.5;12.4;9.8
76043;PMS7003;64740;34.694;33.088;2023-07-16T08:25:19;11.2;10.9;7.9
76043;PMS7003;64740;34.694;33.088;2023-07-16T08:30:23;9.7;9.3;6.8
76043;PMS7003;64740;34.694;33.088;2023-07-16T08:35:33;9.9;9.6;7.3
76043;PMS7003;64740;34.694;33.088;2023-07-16T08:40:23;9;9;7.2
76043;PMS7003;64740;34.694;33.088;2023-07-16T08:45:11;9.8;9.6;7.1
76043;PMS7003;64740;34.694;33.088;2023-07-16T08:50:09;8.4;8.3;6.4
76043;PMS7003;64740;34.694;33.088;2023-07-16T08:55:49;8.5;8.5;5.9
76043;PMS7003;64740;34.694;33.088;2023-07-16T09:00:11;7.4;7.1;5.3
76043;PMS7003;64740;34.694;33.088;2023-07-16T09:05:09;8.8;8.7;6.5
76043;PMS7003;64740;34.694;33.088;2023-07-16T09:10:52;8.5;8.2;6.4
76043;PMS7003;64740;34.694;33.088;2023-07-16T09:15:19;8.2;8.1;6.1
76043;PMS7003;64740;34.694;33.088;2023-07-16T09:20:17;8.8;8.4;6.1
76043;PMS7003;64740;34.694;33.088;2023-07-16T09:25:26;8.5;8.4;6.7
76043;PMS7003;64740;34.694;33.088;2023-07-16T09:30:33;7.4;7.4;5.6
76043;PMS7003;64740;34.694;33.088;2023-07-16T09:35:14;6.9;6.6;5.3
76043;PMS7003;64740;34.694;33.088;2023-07-16T09:40:25;6.8;6.5;5.4
76043;PMS7003;64740;34.694;33.088;2023-07-16T09:45:49;7.7;7.6;5.9
76043;PMS7003;64740;34.694;33.088;2023-07-16T09:50:34;8;7.8;6.1
76043;PMS7003;64740;34.694;33.088;2023-07-16T09:55:09;5.9;5.8;4.6
76043;PMS7003;64740;34.694;33.088;2023-07-16T10:00:10;6.1;6;4.6
76043;PMS7003;64740;34.694;33.088;2023-07-16T10:05:11;7.7;7.7;5.9
76043;PMS7003;64740;34.694;33.088;2023-07-16T10:10:11;10.5;10.1;7.5
76043;PMS7003;64740;34.694;33.088;2023-07-16T10:15:11;10.5;10.4;8.2
76043;PMS7003;64740;34.694;33.088;2023-07-16T10:20:41;7.1;7;5.3
76043;PMS7003;64740;34.694;33.088;2023-07-16T10:25:31;9.3;9.2;7.1
76043;PMS7003;64740;34.694;33.088;2023-07-16T10:30:49;6.7;6.6;5.1
76043;PMS7003;64740;34.694;33.088;2023-07-16T10:35:40;5.7;5.6;4.4
76043;PMS7003;64740;34.694;33.088;2023-07-16T10:40:25;5.4;5.4;4.2
76043;PMS7003;64740;34.694;33.088;2023-07-16T10:45:39;7.9;7.8;6.1
76043;PMS7003;64740;34.694;33.088;2023-07-16T10:50:52;8.2;8.2;6.5
76043;PMS7003;64740;34.694;33.088;2023-07-16T10:55:49;9.7;9.7;7.3
76043;PMS7003;64740;34.694;33.088;2023-07-16T11:00:47;7.1;7;5.5
76043;PMS7003;64740;34.694;33.088;2023-07-16T11:05:47;5.1;5.1;4.3
76043;PMS7003;64740;34.694;33.088;2023-07-16T11:10:09;4.6;4.5;3.7
76043;PMS7003;64740;34.694;33.088;2023-07-16T11:15:33;5.1;5;3.8
76043;PMS7003;64740;34.694;33.088;2023-07-16T11:20:50;5.6;5.4;4.3
76043;PMS7003;64740;34.694;33.088;2023-07-16T11:25:49;4.5;4.5;3.4
76043;PMS7003;64740;34.694;33.088;2023-07-16T11:30:33;5;5;3.8
76043;PMS7003;64740;34.694;33.088;2023-07-16T11:35:41;6;5.8;4.5
76043;PMS7003;64740;34.694;33.088;2023-07-16T11:40:34;6.3;6.1;4.8
76043;PMS7003;64740;34.694;33.088;2023-07-16T11:45:16;6.4;6.4;5.2
76043;PMS7003;64740;34.694;33.088;2023-07-16T11:50:25;8.6;8.6;6.7
76043;PMS7003;64740;34.694;33.088;2023-07-16T11:55:33;6.9;6.6;5.1
76043;PMS7003;64740;34.694;33.088;2023-07-16T12:00:49;7.4;7.2;5.7
76043;PMS7003;64740;34.694;33.088;2023-07-16T12:05:11;6.6;6.6;5.1
76043;PMS7003;64740;34.694;33.088;2023-07-16T12:10:39;6.1;6;4.9
76043;PMS7003;64740;34.694;33.088;2023-07-16T12:15:45;5.6;5.6;4.5
76043;PMS7003;64740;34.694;33.088;2023-07-16T12:20:11;5.6;5.6;4.4
76043;PMS7003;64740;34.694;33.088;2023-07-16T12:25:50;7.2;7;5.4
76043;PMS7003;64740;34.694;33.088;2023-07-16T12:30:35;4.9;4.8;4.1
76043;PMS7003;64740;34.694;33.088;2023-07-16T12:35:11;6.4;6.2;4.9
76043;PMS7003;64740;34.694;33.088;2023-07-16T12:40:31;7.6;7.5;5.8
76043;PMS7003;64740;34.694;33.088;2023-07-16T12:45:25;5.8;5.6;4.4
76043;PMS7003;64740;34.694;33.088;2023-07-16T12:50:09;5.9;5.8;4.8
76043;PMS7003;64740;34.694;33.088;2023-07-16T12:55:41;5.9;5.6;4.4
76043;PMS7003;64740;34.694;33.088;2023-07-16T13:00:49;5.9;5.7;4.6
76043;PMS7003;64740;34.694;33.088;2023-07-16T13:05:09;5.7;5.6;4.5
76043;PMS7003;64740;34.694;33.088;2023-07-16T13:10:11;5.3;5.2;4.2
76043;PMS7003;64740;34.694;33.088;2023-07-16T13:15:10;5.4;5.4;4.3
76043;PMS7003;64740;34.694;33.088;2023-07-16T13:20:47;5.7;5.7;4.6
76043;PMS7003;64740;34.694;33.088;2023-07-16T13:25:09;5.4;5.3;4.6
76043;PMS7003;64740;34.694;33.088;2023-07-16T13:30:25;5.5;5.3;4.4
76043;PMS7003;64740;34.694;33.088;2023-07-16T13:35:47;6;5.9;4.7
76043;PMS7003;64740;34.694;33.088;2023-07-16T13:40:31;5.8;5.6;4.2
76043;PMS7003;64740;34.694;33.088;2023-07-16T13:45:25;6.3;6.1;4.5
76043;PMS7003;64740;34.694;33.088;2023-07-16T13:50:40;6.2;6;4.9
76043;PMS7003;64740;34.694;33.088;2023-07-16T13:55:33;6.3;6.2;5.1
76043;PMS7003;64740;34.694;33.088;2023-07-16T14:00:10;5.6;5.6;4.9
76043;PMS7003;64740;34.694;33.088;2023-07-16T14:05:09;6.4;6.3;5.2
76043;PMS7003;64740;34.694;33.088;2023-07-16T14:10:49;6.7;6.7;5.4
76043;PMS7003;64740;34.694;33.088;2023-07-16T14:15:33;6.7;6.6;5.3
76043;PMS7003;64740;34.694;33.088;2023-07-16T14:20:11;7.2;7;5.7
76043;PMS7003;64740;34.694;33.088;2023-07-16T14:25:25;7.1;7;5.7
76043;PMS7003;64740;34.694;33.088;2023-07-16T14:30:10;7.3;7.1;5.7
76043;PMS7003;64740;34.694;33.088;2023-07-16T14:35:09;7.2;7.2;5.9
76043;PMS7003;64740;34.694;33.088;2023-07-16T14:40:49;6.9;6.7;5.3
76043;PMS7003;64740;34.694;33.088;2023-07-16T14:45:11;6.7;6.7;5.4
76043;PMS7003;64740;34.694;33.088;2023-07-16T14:50:34;8.2;8;6.3
76043;PMS7003;64740;34.694;33.088;2023-07-16T14:55:50;7;6.9;5.5
76043;PMS7003;64740;34.694;33.088;2023-07-16T15:00:12;7.1;7.1;5.8
76043;PMS7003;64740;34.694;33.088;2023-07-16T15:05:23;7.9;7.7;6.2
76043;PMS7003;64740;34.694;33.088;2023-07-16T15:10:43;7.7;7.7;6.1
76043;PMS7003;64740;34.694;33.088;2023-07-16T15:15:49;6.9;6.8;5.7
76043;PMS7003;64740;34.694;33.088;2023-07-16T15:20:54;7.3;7.1;5.9
76043;PMS7003;64740;34.694;33.088;2023-07-16T15:25:49;7.8;7.7;6.3
76043;PMS7003;64740;34.694;33.088;2023-07-16T15:30:49;7.3;7.3;5.8
76043;PMS7003;64740;34.694;33.088;2023-07-16T15:35:11;7.7;7.6;6.2
76043;PMS7003;64740;34.694;33.088;2023-07-16T15:40:11;7.5;7.5;5.9
76043;PMS7003;64740;34.694;33.088;2023-07-16T15:45:41;7.6;7.6;6.3
76043;PMS7003;64740;34.694;33.088;2023-07-16T15:50:51;7.8;7.7;6
76043;PMS7003;64740;34.694;33.088;2023-07-16T15:55:34;7.2;7.2;5.8
76043;PMS7003;64740;34.694;33.088;2023-07-16T16:00:41;7.1;7.1;5.5
76043;PMS7003;64740;34.694;33.088;2023-07-16T16:05:51;7.8;7.8;6.1
76043;PMS7003;64740;34.694;33.088;2023-07-16T16:10:10;8.4;8;5.9
76043;PMS7003;64740;34.694;33.088;2023-07-16T16:15:34;8.5;8.2;6.5
76043;PMS7003;64740;34.694;33.088;2023-07-16T16:20:25;8.6;8.4;6.5
76043;PMS7003;64740;34.694;33.088;2023-07-16T16:25:50;8.6;8.5;6.5
76043;PMS7003;64740;34.694;33.088;2023-07-16T16:30:34;10.5;10.1;7.4
76043;PMS7003;64740;34.694;33.088;2023-07-16T16:35:42;9.8;9.7;7.4
76043;PMS7003;64740;34.694;33.088;2023-07-16T16:40:10;8.4;8.2;6.2
76043;PMS7003;64740;34.694;33.088;2023-07-16T16:45:10;8.3;8;6.4
76043;PMS7003;64740;34.694;33.088;2023-07-16T16:50:50;9.1;9;7.2
76043;PMS7003;64740;34.694;33.088;2023-07-16T16:55:12;9.2;9;7.3
76043;PMS7003;64740;34.694;33.088;2023-07-16T17:00:12;8.8;8.4;6.4
76043;PMS7003;64740;34.694;33.088;2023-07-16T17:05:34;9.5;9.4;7.5
76043;PMS7003;64740;34.694;33.088;2023-07-16T17:10:50;10.4;10.3;7.8
76043;PMS7003;64740;34.694;33.088;2023-07-16T17:15:10;9.9;9.7;7.7
76043;PMS7003;64740;34.694;33.088;2023-07-16T17:20:22;9.8;9.7;7.7
76043;PMS7003;64740;34.694;33.088;2023-07-16T17:25:34;11.1;10.9;8.2
76043;PMS7003;64740;34.694;33.088;2023-07-16T17:30:42;10.1;9.8;7.6
76043;PMS7003;64740;34.694;33.088;2023-07-16T17:35:10;13.7;13.6;9.9
76043;PMS7003;64740;34.694;33.088;2023-07-16T17:40:24;10.9;10.7;8
76043;PMS7003;64740;34.694;33.088;2023-07-16T17:45:54;10.4;9.9;7.8
76043;PMS7003;64740;34.694;33.088;2023-07-16T17:50:12;8.5;8.3;6.6
76043;PMS7003;64740;34.694;33.088;2023-07-16T17:55:10;8.7;8.6;6.6
76043;PMS7003;64740;34.694;33.088;2023-07-16T18:00:54;9.4;9.3;7.4
76043;PMS7003;64740;34.694;33.088;2023-07-16T18:05:34;10.5;10.3;7.7
76043;PMS7003;64740;34.694;33.088;2023-07-16T18:10:16;10.6;10.5;7.6
76043;PMS7003;64740;34.694;33.088;2023-07-16T18:15:52;10;9.8;7.3
76043;PMS7003;64740;34.694;33.088;2023-07-16T18:20:12;13.5;13.3;9.8
76043;PMS7003;64740;34.694;33.088;2023-07-16T18:25:47;12.4;12.1;9.2
76043;PMS7003;64740;34.694;33.088;2023-07-16T18:30:16;10.8;10.8;8.5
76043;PMS7003;64740;34.694;33.088;2023-07-16T18:35:54;11.3;11.2;8.5
76043;PMS7003;64740;34.694;33.088;2023-07-16T18:40:38;12.7;12.2;9.5
76043;PMS7003;64740;34.694;33.088;2023-07-16T18:45:38;13;12.8;9.8
76043;PMS7003;64740;34.694;33.088;2023-07-16T18:50:24;13.2;12.8;10.2
76043;PMS7003;64740;34.694;33.088;2023-07-16T18:55:30;13.2;13;9.9
76043;PMS7003;64740;34.694;33.088;2023-07-16T19:00:10;14.9;14.9;10.5
76043;PMS7003;64740;34.694;33.088;2023-07-16T19:05:54;19.3;19.2;13.9
76043;PMS7003;64740;34.694;33.088;2023-07-16T19:10:10;19.1;18.8;14
76043;PMS7003;64740;34.694;33.088;2023-07-16T19:15:38;15.1;14.8;10.5
76043;PMS7003;64740;34.694;33.088;2023-07-16T19:20:54;18.1;17.7;12.9
76043;PMS7003;64740;34.694;33.088;2023-07-16T19:25:54;21.3;20.8;15
76043;PMS7003;64740;34.694;33.088;2023-07-16T19:30:38;21.7;21.2;15.8
76043;PMS7003;64740;34.694;33.088;2023-07-16T19:35:33;19.8;19.4;13.7
76043;PMS7003;64740;34.694;33.088;2023-07-16T19:40:12;12.2;11.9;9.2
76043;PMS7003;64740;34.694;33.088;2023-07-16T19:45:58;10.7;10.5;8.2
76043;PMS7003;64740;34.694;33.088;2023-07-16T19:50:54;10.8;10.6;7.9
76043;PMS7003;64740;34.694;33.088;2023-07-16T19:55:56;10.8;10.8;8.4
76043;PMS7003;64740;34.694;33.088;2023-07-16T20:00:10;10.2;10;7.6
76043;PMS7003;64740;34.694;33.088;2023-07-16T20:05:16;8.6;8.4;6.5
76043;PMS7003;64740;34.694;33.088;2023-07-16T20:10:32;8.4;8.3;6.1
76043;PMS7003;64740;34.694;33.088;2023-07-16T20:15:34;7.9;7.9;6.2
76043;PMS7003;64740;34.694;33.088;2023-07-16T20:20:38;7.8;7.6;5.9
76043;PMS7003;64740;34.694;33.088;2023-07-16T20:25:46;7.6;7.5;6
76043;PMS7003;64740;34.694;33.088;2023-07-16T20:30:48;8.4;8.2;6.4
76043;PMS7003;64740;34.694;33.088;2023-07-16T20:35:10;9.3;9.1;6.9
76043;PMS7003;64740;34.694;33.088;2023-07-16T20:40:10;8.7;8.5;6.9
76043;PMS7003;64740;34.694;33.088;2023-07-16T20:45:38;8.9;8.8;6.9
76043;PMS7003;64740;34.694;33.088;2023-07-16T20:50:54;8.7;8.5;6.7
76043;PMS7003;64740;34.694;33.088;2023-07-16T20:55:38;7.8;7.8;5.7
76043;PMS7003;64740;34.694;33.088;2023-07-16T21:00:46;8;7.9;6.4
76043;PMS7003;64740;34.694;33.088;2023-07-16T21:05:46;7.4;7.3;5.8
76043;PMS7003;64740;34.694;33.088;2023-07-16T21:10:16;7.2;7;5.6
76043;PMS7003;64740;34.694;33.088;2023-07-16T21:15:54;7.1;6.9;5.7
76043;PMS7003;64740;34.694;33.088;2023-07-16T21:20:25;7.4;7.4;5.8
76043;PMS7003;64740;34.694;33.088;2023-07-16T21:25:10;7.5;7.4;5.9
76043;PMS7003;64740;34.694;33.088;2023-07-16T21:30:32;7.1;7.1;5.3
76043;PMS7003;64740;34.694;33.088;2023-07-16T21:35:54;7.3;7.2;5.9
76043;PMS7003;64740;34.694;33.088;2023-07-16T21:40:10;6.4;6.3;5
76043;PMS7003;64740;34.694;33.088;2023-07-16T21:45:54;6.5;6.4;5.1
76043;PMS7003;64740;34.694;33.088;2023-07-16T21:50:38;6.7;6.7;5.3
76043;PMS7003;64740;34.694;33.088;2023-07-16T21:55:28;6.6;6.4;5
76043;PMS7003;64740;34.694;33.088;2023-07-16T22:00:48;6.7;6.5;5.2
76043;PMS7003;64740;34.694;33.088;2023-07-16T22:05:22;6.6;6.6;5
76043;PMS7003;64740;34.694;33.088;2023-07-16T22:10:46;6.4;6.3;5.1
76043;PMS7003;64740;34.694;33.088;2023-07-16T22:15:10;6.4;6.3;4.9
76043;PMS7003;64740;34.694;33.088;2023-07-16T22:20:10;5.3;5.3;4.3
76043;PMS7003;64740;34.694;33.088;2023-07-16T22:25:54;6.7;6.7;5.2
76043;PMS7003;64740;34.694;33.088;2023-07-16T22:30:38;6.6;6.5;5
76043;PMS7003;64740;34.694;33.088;2023-07-16T22:35:22;5.8;5.5;4.6
76043;PMS7003;64740;34.694;33.088;2023-07-16T22:40:24;6.8;6.7;5.5
76043;PMS7003;64740;34.694;33.088;2023-07-16T22:45:10;5.7;5.7;4.8
76043;PMS7003;64740;34.694;33.088;2023-07-16T22:50:10;6.7;6.6;5
76043;PMS7003;64740;34.694;33.088;2023-07-16T22:55:30;6.5;6.3;4.9
76043;PMS7003;64740;34.694;33.088;2023-07-16T23:00:26;6.3;6.3;5.1
76043;PMS7003;64740;34.694;33.088;2023-07-16T23:05:38;5.9;5.8;4.6
76043;PMS7003;64740;34.694;33.088;2023-07-16T23:10:12;6.1;6.1;4.6
76043;PMS7003;64740;34.694;33.088;2023-07-16T23:15:24;5.5;5.5;4.5
76043;PMS7003;64740;34.694;33.088;2023-07-16T23:20:16;6.1;5.9;4.8
76043;PMS7003;64740;34.694;33.088;2023-07-16T23:25:16;6.8;6.5;5.1
76043;PMS7003;64740;34.694;33.088;2023-07-16T23:30:54;5.5;5.5;4.6
76043;PMS7003;64740;34.694;33.088;2023-07-16T23:35:26;5.9;5.8;4.6
76043;PMS7003;64740;34.694;33.088;2023-07-16T23:40:38;6.1;6.1;5
76043;PMS7003;64740;34.694;33.088;2023-07-16T23:45:54;7.7;7.6;5.8
76043;PMS7003;64740;34.694;33.088;2023-07-16T23:50:46;6.5;6.5;5.1
76043;PMS7003;64740;34.694;33.088;2023-07-16T23:55:10;5.5;5.4;4.2
